Overview Statistics Trail Chart Weather Telemetry Raw packets
 

This is the latest recevied weather packets stored in our database for station/object IW1CBG-3. If no packets are shown the sender has not sent any weather packets the latest 10 day(s).

<< 29 30 31 32 33 34 35 >>
Time Temp. Humidity Pressure Rain* Wind** Luminosity Snow
1788220577 14.44° C 90% 1029.2 hPa 0 mm - - -
1788219977 15° C 90% 1028.9 hPa 0 mm - - -
1788219377 15.56° C 91% 1028.7 hPa 0 mm - - -
1788218776 15° C 92% 1028.8 hPa 0 mm - - -
1788218177 15.56° C 90% 1028.6 hPa 0 mm - - -
1788217577 15° C 92% 1028.9 hPa 0 mm - - -
1788216977 15° C 94% 1028.7 hPa 0 mm - - -
1788216376 15.56° C 93% 1028.7 hPa 0 mm - - -
1788215776 15.56° C 91% 1028.7 hPa 0 mm - - -
1788215177 15.56° C 94% 1028.7 hPa 0 mm - - -
1788214576 15.56° C 94% 1028.7 hPa 0 mm - - -
1788213978 15.56° C 95% 1028.5 hPa 0 mm - - -
1788213377 16.11° C 95% 1028.4 hPa 0 mm - - -
1788212777 15.56° C 95% 1028.4 hPa 0 mm - - -
1788212177 15.56° C 95% 1028.5 hPa 0 mm - - -
1788211576 16.11° C 94% 1028.4 hPa 0 mm - - -
1788210976 16.11° C 94% 1028.2 hPa 0 mm - - -
1788210387 16.67° C 94% 1027.8 hPa 0 mm - - -
1788209777 16.67° C 94% 1027.7 hPa 0 mm - - -
1788209177 16.67° C 94% 1027.9 hPa 0 mm - - -
1788208577 17.22° C 93% 1027.5 hPa 0 mm - - -
1788207977 17.22° C 94% 1027.2 hPa 0 mm - - -
1788207376 17.22° C 95% 1027.1 hPa 0 mm - - -
1787924519 27.22° C 69% 1023.1 hPa 0 mm - - -
1787923918 26.67° C 72% 1023.1 hPa 0 mm - - -

* Rain latest hour (hover to see other rain measurements)
** Current wind speed in m/s (hover to see current wind gust speed)